Time;durP1;ratioP1;P1;durP2;ratioP2;P2;SDS_P1;SDS_P2;PMS_P1;PMS_P2;Temp;Humidity;BMP_temperature;BMP_pressure;BME280_temperature;BME280_humidity;BME280_pressure;Samples;Min_cycle;Max_cycle;Signal;HPM_P1;HPM_P2
2022/04/20 00:01:26;;;;;;;34.50;21.10;;;;;;;13.63;64.76;99507.50;5099425;27;20139;-79
2022/04/20 00:03:52;;;;;;;33.97;21.92;;;;;;;13.41;65.75;99503.22;5116151;27;20420;-78
2022/04/20 00:06:17;;;;;;;33.88;22.02;;;;;;;13.43;65.92;99510.16;5082465;27;20058;-79
2022/04/20 00:08:43;;;;;;;39.10;21.67;;;;;;;13.42;65.76;99499.53;5115968;27;20042;-78
2022/04/20 00:11:09;;;;;;;33.00;21.67;;;;;;;13.50;65.50;99502.38;5099333;27;20049;-79
2022/04/20 00:13:35;;;;;;;39.33;24.05;;;;;;;13.47;65.98;99487.41;5099164;27;20442;-79
2022/04/20 00:16:01;;;;;;;35.78;23.95;;;;;;;13.43;66.13;99490.50;5095948;28;20040;-79
2022/04/20 00:18:28;;;;;;;35.75;23.73;;;;;;;13.45;66.09;99485.84;5114014;28;20561;-79
2022/04/20 00:20:54;;;;;;;41.80;24.73;;;;;;;13.49;65.92;99490.78;5078722;28;20039;-81
2022/04/20 00:23:20;;;;;;;37.92;24.00;;;;;;;13.48;66.45;99482.88;5113825;28;20039;-79
2022/04/20 00:25:45;;;;;;;36.40;24.02;;;;;;;13.36;66.37;99464.19;5095694;28;20043;-78
2022/04/20 00:28:11;;;;;;;40.42;25.52;;;;;;;13.41;66.38;99471.84;5095612;28;20540;-79
2022/04/20 00:30:37;;;;;;;44.05;25.30;;;;;;;13.46;66.27;99468.72;5095618;28;20039;-79
2022/04/20 00:33:03;;;;;;;34.72;24.08;;;;;;;13.45;66.40;99469.72;5078572;28;20122;-80
2022/04/20 00:35:29;;;;;;;34.45;24.25;;;;;;;13.41;66.33;99465.63;5078985;28;20043;-79
2022/04/20 00:37:55;;;;;;;35.28;23.35;;;;;;;13.40;66.55;99469.31;5114101;28;20039;-80
2022/04/20 00:40:21;;;;;;;35.22;22.77;;;;;;;13.35;66.78;99462.50;5097386;28;20108;-79
2022/04/20 00:42:47;;;;;;;36.83;22.83;;;;;;;13.30;67.30;99469.25;5096735;28;20039;-79
2022/04/20 00:45:13;;;;;;;41.78;24.00;;;;;;;13.27;67.39;99470.38;5096117;28;20040;-83
2022/04/20 00:47:42;;;;;;;36.55;24.20;;;;;;;13.25;67.46;99475.06;5079211;28;20461;-82
2022/04/20 00:50:13;;;;;;;36.05;23.75;;;;;;;13.21;67.47;99476.28;5078971;28;20088;-82
2022/04/20 00:52:40;;;;;;;36.42;23.23;;;;;;;13.20;67.61;99469.22;5078954;28;20069;-83
2022/04/20 00:55:09;;;;;;;34.75;22.00;;;;;;;13.26;67.51;99468.69;5112968;27;20505;-83
2022/04/20 00:57:35;;;;;;;37.25;23.10;;;;;;;13.27;67.29;99454.28;5098641;27;20039;-84
2022/04/20 01:00:03;;;;;;;34.10;23.05;;;;;;;13.33;66.92;99451.06;5098256;27;20092;-78
2022/04/20 01:02:32;;;;;;;31.27;20.50;;;;;;;13.46;66.40;99458.00;5098873;27;20050;-79
2022/04/20 01:04:58;;;;;;;39.78;19.77;;;;;;;13.46;65.95;99444.56;5099145;28;20047;-80
2022/04/20 01:07:37;;;;;;;30.83;19.27;;;;;;;13.48;66.01;99439.91;5100322;28;20034;-80
2022/04/20 01:10:23;;;;;;;28.23;18.55;;;;;;;13.58;65.31;99438.09;5133003;27;20047;-79
2022/04/20 01:12:49;;;;;;;27.55;19.10;;;;;;;13.59;64.75;99437.09;5115380;28;20035;-79
2022/04/20 01:15:17;;;;;;;28.15;17.50;;;;;;;13.70;64.50;99450.41;5133901;28;20104;-79
2022/04/20 01:18:15;;;;;;;29.33;17.70;;;;;;;13.71;64.23;99438.66;5118817;28;20047;-79
2022/04/20 01:21:13;;;;;;;31.38;18.33;;;;;;;13.79;64.05;99438.81;5085409;28;20046;-79
2022/04/20 01:23:55;;;;;;;31.65;17.52;;;;;;;13.81;64.00;99442.22;5084213;28;20404;-79
2022/04/20 01:26:57;;;;;;;26.13;17.50;;;;;;;13.63;64.36;99441.22;5011339;28;20049;-79
2022/04/20 01:29:42;;;;;;;26.58;16.77;;;;;;;13.66;64.51;99446.31;5089860;28;20074;-80
2022/04/20 01:32:27;;;;;;;25.52;16.23;;;;;;;13.57;64.10;99423.81;5064498;28;20063;-80
2022/04/20 01:35:11;;;;;;;22.95;16.17;;;;;;;13.66;64.32;99434.72;5063829;28;20042;-78
2022/04/20 01:37:38;;;;;;;25.27;15.30;;;;;;;13.72;64.37;99448.41;5095373;28;20048;-79
2022/04/20 01:40:05;;;;;;;34.10;16.92;;;;;;;13.74;64.26;99440.22;5077663;28;20040;-80
2022/04/20 01:42:32;;;;;;;28.98;17.23;;;;;;;13.66;64.38;99424.81;5097477;28;20104;-80
2022/04/20 01:45:01;;;;;;;31.98;16.63;;;;;;;13.75;64.03;99432.03;5099935;28;20070;-80
2022/04/20 01:47:51;;;;;;;28.95;17.00;;;;;;;13.74;64.10;99441.06;5077867;28;20497;-79
2022/04/20 01:50:31;;;;;;;27.63;16.30;;;;;;;13.75;63.98;99441.91;5079111;28;20039;-80
2022/04/20 01:53:24;;;;;;;33.13;15.55;;;;;;;13.65;63.58;99433.84;5066814;28;20052;-79
2022/04/20 01:56:13;;;;;;;16.80;13.57;;;;;;;13.64;63.17;99445.59;5062197;28;20057;-80
2022/04/20 01:58:57;;;;;;;25.80;12.82;;;;;;;13.65;62.65;99438.38;5112963;28;20046;-80
2022/04/20 02:04:28;;;;;;;25.80;14.30;;;;;;;13.66;61.94;99426.66;5112862;28;20040;-81
2022/04/20 02:06:56;;;;;;;23.70;13.00;;;;;;;13.58;61.89;99417.47;5094547;28;20039;-80
2022/04/20 02:09:25;;;;;;;23.52;13.00;;;;;;;13.69;62.03;99434.41;5094863;28;20042;-80
2022/04/20 02:12:03;;;;;;;22.45;13.52;;;;;;;13.76;61.85;99425.66;5095423;28;20066;-82
2022/04/20 02:14:55;;;;;;;24.77;12.52;;;;;;;13.79;61.96;99428.06;5090051;28;20062;-81
2022/04/20 02:17:50;;;;;;;27.55;13.00;;;;;;;13.76;62.22;99431.03;5083838;28;20040;-81
2022/04/20 02:20:22;;;;;;;23.85;14.48;;;;;;;13.73;62.38;99428.63;5063908;28;20077;-83
2022/04/20 02:22:48;;;;;;;27.45;12.30;;;;;;;13.75;62.48;99415.91;5099359;28;20051;-82
2022/04/20 02:25:14;;;;;;;17.65;12.05;;;;;;;13.88;61.96;99425.50;5082991;28;20046;-81
2022/04/20 02:27:40;;;;;;;22.75;12.75;;;;;;;13.94;62.00;99419.56;5082341;28;20085;-80
2022/04/20 02:30:06;;;;;;;18.10;12.20;;;;;;;13.95;61.67;99426.63;5064921;28;20134;-81
2022/04/20 02:32:35;;;;;;;23.38;12.10;;;;;;;13.95;61.39;99429.31;5066188;28;20051;-80
2022/04/20 02:35:01;;;;;;;;;;;;;;;14.13;61.05;99433.00;5082638;28;20046;-80
2022/04/20 02:37:30;;;;;;;22.75;10.93;;;;;;;14.07;60.87;99425.53;5082389;28;19916;-80
2022/04/20 02:39:56;;;;;;;17.65;9.82;;;;;;;14.16;60.26;99434.56;5065461;28;20035;-80
2022/04/20 02:42:22;;;;;;;44.67;11.15;;;;;;;14.28;60.55;99436.09;5064233;28;20246;-80
2022/04/20 02:44:48;;;;;;;17.33;9.80;;;;;;;14.33;60.08;99429.31;5080953;28;20051;-80
2022/04/20 02:47:16;;;;;;;31.67;10.80;;;;;;;14.43;59.39;99414.97;5117161;28;20067;-82
2022/04/20 02:49:42;;;;;;;21.25;10.48;;;;;;;14.59;59.37;99426.00;5064814;28;20066;-81
2022/04/20 02:52:08;;;;;;;35.92;10.23;;;;;;;14.60;59.20;99419.63;5064413;28;20059;-82
2022/04/20 02:54:33;;;;;;;23.45;9.32;;;;;;;14.72;58.75;99426.53;5082913;28;20139;-80
2022/04/20 02:57:00;;;;;;;18.95;9.60;;;;;;;14.85;58.71;99425.34;5104486;27;20038;-80
2022/04/20 02:59:26;;;;;;;26.65;10.18;;;;;;;14.78;58.68;99420.56;5100071;27;20585;-79
2022/04/20 03:01:53;;;;;;;19.33;9.82;;;;;;;14.70;58.67;99428.50;5100523;28;20104;-81
2022/04/20 03:04:20;;;;;;;31.20;10.80;;;;;;;14.71;58.52;99424.84;5081827;28;20054;-81
2022/04/20 03:06:46;;;;;;;28.73;12.23;;;;;;;14.70;58.63;99425.81;5064015;28;20039;-82
2022/04/20 03:09:24;;;;;;;24.63;10.10;;;;;;;14.62;58.89;99406.88;5066530;28;20059;-81
2022/04/20 03:11:50;;;;;;;21.70;9.98;;;;;;;14.74;58.63;99421.88;5080706;28;20324;-81
2022/04/20 03:14:18;;;;;;;19.40;10.25;;;;;;;14.76;58.37;99419.00;5081720;28;20043;-80
2022/04/20 03:16:45;;;;;;;27.25;11.18;;;;;;;14.86;58.19;99416.28;5080578;28;20498;-79
2022/04/20 03:19:13;;;;;;;29.90;9.90;;;;;;;14.85;58.13;99414.56;5064529;28;20501;-80
2022/04/20 03:21:39;;;;;;;24.08;10.05;;;;;;;14.88;58.47;99416.97;5083442;28;20054;-80
2022/04/20 03:24:05;;;;;;;31.45;10.38;;;;;;;14.99;57.93;99422.16;5083203;28;20050;-80
2022/04/20 03:26:51;;;;;;;24.08;9.60;;;;;;;15.14;57.41;99412.59;5085247;28;20051;-81
2022/04/20 03:29:26;;;;;;;29.27;9.90;;;;;;;15.24;57.04;99415.25;5087029;28;20043;-81
2022/04/20 03:31:53;;;;;;;23.38;10.20;;;;;;;15.32;56.63;99418.03;5083415;28;20375;-81
2022/04/20 03:34:20;;;;;;;18.45;9.65;;;;;;;15.37;56.56;99409.47;5083532;28;20120;-81
2022/04/20 03:36:47;;;;;;;19.02;9.35;;;;;;;15.51;56.24;99425.13;5086567;28;20077;-79
2022/04/20 03:39:13;;;;;;;25.38;9.70;;;;;;;15.60;56.32;99417.97;5067584;28;20058;-81
2022/04/20 03:41:39;;;;;;;26.35;9.77;;;;;;;15.82;55.65;99414.00;5101843;28;20122;-81
2022/04/20 03:44:05;;;;;;;21.60;9.73;;;;;;;15.82;55.21;99403.22;5086230;28;20071;-80
2022/04/20 03:46:31;;;;;;;19.25;9.75;;;;;;;15.84;54.96;99417.41;5121222;28;20039;-83
2022/04/20 03:48:58;;;;;;;25.75;8.90;;;;;;;15.95;56.22;99425.25;5102194;28;20422;-81
2022/04/20 03:51:24;;;;;;;19.95;8.30;;;;;;;16.43;58.44;99415.84;5063071;28;20050;-80
2022/04/20 03:53:52;;;;;;;24.33;8.45;;;;;;;16.72;57.54;99405.56;5079298;28;20039;-80
2022/04/20 03:56:17;;;;;;;31.63;7.97;;;;;;;17.10;55.62;99416.06;5079283;28;20075;-80
2022/04/20 03:58:44;;;;;;;21.73;7.68;;;;;;;17.30;55.25;99408.53;5079966;28;20047;-83
2022/04/20 04:01:10;;;;;;;18.75;8.02;;;;;;;17.47;52.46;99418.38;5066651;28;20051;-88
2022/04/20 04:03:37;;;;;;;27.58;7.00;;;;;;;17.41;51.74;99416.31;5082144;28;20047;-78
2022/04/20 04:06:15;;;;;;;29.73;8.05;;;;;;;17.30;51.97;99416.63;5097391;28;20155;-79
2022/04/20 04:08:41;;;;;;;21.42;7.38;;;;;;;17.32;50.92;99409.22;5096886;28;20043;-79
2022/04/20 04:11:07;;;;;;;13.93;6.38;;;;;;;17.32;50.80;99410.06;5079496;28;20513;-79
2022/04/20 04:13:35;;;;;;;18.40;6.10;;;;;;;17.44;50.10;99414.13;5096398;28;20053;-80
2022/04/20 04:16:01;;;;;;;21.23;6.78;;;;;;;17.53;50.38;99415.03;5062694;28;20035;-79
2022/04/20 04:18:29;;;;;;;19.75;5.47;;;;;;;17.69;49.59;99412.34;5096156;28;20131;-80
2022/04/20 04:20:57;;;;;;;17.83;5.90;;;;;;;17.95;49.72;99403.28;5063992;28;20089;-80
2022/04/20 04:23:23;;;;;;;21.20;4.93;;;;;;;17.94;48.06;99393.44;5079880;28;20053;-79
2022/04/20 04:26:14;;;;;;;19.20;5.25;;;;;;;18.00;47.88;99395.50;5078907;28;20066;-77
2022/04/20 04:28:43;;;;;;;18.83;5.25;;;;;;;18.17;48.51;99405.31;5095646;28;20043;-75
2022/04/20 04:31:11;;;;;;;8.65;4.38;;;;;;;18.33;46.71;99395.47;5079097;28;20047;-77
2022/04/20 04:33:37;;;;;;;9.88;4.50;;;;;;;18.41;46.66;99390.88;5095884;28;20047;-75
2022/04/20 04:36:04;;;;;;;18.73;4.55;;;;;;;18.60;46.36;99395.06;5078926;28;20043;-77
2022/04/20 04:38:34;;;;;;;18.20;4.82;;;;;;;18.79;45.39;99403.84;5079753;28;20099;-77
2022/04/20 04:41:00;;;;;;;11.95;4.32;;;;;;;18.91;44.97;99402.47;5095599;28;20043;-77
2022/04/20 04:43:30;;;;;;;17.65;4.20;;;;;;;19.10;45.25;99402.03;5077593;28;20070;-76
2022/04/20 04:49:19;;;;;;;11.85;3.63;;;;;;;19.32;42.97;99402.28;5075509;28;20061;-77
2022/04/20 04:51:46;;;;;;;12.98;3.45;;;;;;;19.47;42.57;99397.78;5078292;28;20144;-79
2022/04/20 04:54:16;;;;;;;9.20;3.70;;;;;;;19.72;42.21;99392.25;5095444;28;20096;-82
2022/04/20 04:56:42;;;;;;;13.63;3.60;;;;;;;19.80;41.95;99393.03;5078777;28;20505;-79
2022/04/20 04:59:08;;;;;;;20.25;3.85;;;;;;;19.89;41.65;99399.22;5095231;28;20048;-78
2022/04/20 05:01:34;;;;;;;12.27;3.40;;;;;;;20.03;40.95;99393.00;5095182;28;20056;-77
2022/04/20 05:04:08;;;;;;;15.55;3.40;;;;;;;20.11;40.95;99383.97;5062960;28;20134;-78
2022/04/20 05:06:36;;;;;;;10.10;3.38;;;;;;;20.37;41.24;99399.84;5078840;28;20043;-77
2022/04/20 05:09:14;;;;;;;37.72;4.47;;;;;;;20.41;40.34;99397.59;5078271;28;20039;-78
2022/04/20 05:11:42;;;;;;;17.90;4.20;;;;;;;20.66;40.16;99392.81;5095348;28;20048;-77
2022/04/20 05:14:13;;;;;;;12.90;3.93;;;;;;;20.80;39.10;99400.13;5061927;28;20044;-75
2022/04/20 05:16:40;;;;;;;12.95;3.55;;;;;;;20.88;38.88;99391.03;5095060;28;20047;-78
2022/04/20 05:19:08;;;;;;;29.55;3.97;;;;;;;21.15;39.38;99392.22;5062172;28;20063;-78
2022/04/20 05:21:34;;;;;;;8.63;3.08;;;;;;;21.21;38.91;99381.44;5078230;28;20047;-78
2022/04/20 05:24:01;;;;;;;116.97;8.75;;;;;;;21.46;37.66;99387.38;5095033;28;20051;-78
2022/04/20 05:26:31;;;;;;;13.05;3.42;;;;;;;21.55;37.95;99388.97;5062631;28;20039;-79
2022/04/20 05:28:57;;;;;;;13.65;2.80;;;;;;;21.67;37.75;99385.75;5094837;28;20062;-78
2022/04/20 05:31:23;;;;;;;15.73;3.75;;;;;;;21.95;37.63;99385.81;5095328;28;20062;-79
2022/04/20 05:33:49;;;;;;;11.57;2.88;;;;;;;22.00;36.87;99389.63;5078993;28;20047;-79
2022/04/20 05:36:19;;;;;;;13.43;3.10;;;;;;;21.96;36.48;99392.91;5078679;28;20043;-79
2022/04/20 05:41:42;;;;;;;5.80;2.45;;;;;;;21.97;36.29;99387.28;5077904;28;20038;-79
2022/04/20 05:44:20;;;;;;;12.98;3.10;;;;;;;21.92;36.96;99386.19;5062605;28;20203;-78
2022/04/20 05:46:46;;;;;;;5.55;2.92;;;;;;;22.02;37.07;99390.25;5094639;28;20477;-80
2022/04/20 05:49:14;;;;;;;14.05;3.00;;;;;;;22.03;36.24;99386.50;5094417;28;20035;-78
2022/04/20 05:51:41;;;;;;;15.10;2.85;;;;;;;21.69;36.33;99383.66;5094601;28;20043;-77
2022/04/20 05:54:07;;;;;;;14.65;4.47;;;;;;;21.69;37.21;99389.94;5094276;28;20182;-77
2022/04/20 05:56:36;;;;;;;;;;;;;;;21.85;37.11;99386.09;5079699;28;20039;-76
2022/04/20 05:59:03;;;;;;;12.43;3.03;;;;;;;21.95;36.92;99389.34;5081250;28;19919;-77
2022/04/20 06:01:31;;;;;;;11.48;3.08;;;;;;;22.00;36.74;99381.47;5081449;28;20486;-78
2022/04/20 06:04:11;;;;;;;9.80;3.20;;;;;;;22.02;36.83;99384.81;5083354;28;20043;-76
2022/04/20 06:06:42;;;;;;;5.90;2.80;;;;;;;21.88;36.98;99376.72;5065474;28;20058;-78
2022/04/20 06:09:18;;;;;;;21.83;3.20;;;;;;;21.76;36.61;99392.72;5081661;28;20447;-77
2022/04/20 06:11:47;;;;;;;;;;;;;;;21.40;37.21;99387.31;5117090;28;20040;-77
2022/04/20 06:14:20;;;;;;;11.77;3.47;;;;;;;21.07;38.04;99379.56;5082446;28;19919;-77
2022/04/20 06:17:15;;;;;;;15.35;3.80;;;;;;;21.01;38.62;99381.16;5093573;28;20096;-79
2022/04/20 06:19:48;;;;;;;15.77;3.72;;;;;;;21.02;38.63;99393.72;5098372;28;20052;-78
2022/04/20 06:22:25;;;;;;;13.73;3.60;;;;;;;20.86;38.66;99383.03;5082749;28;20050;-77
2022/04/20 06:24:56;;;;;;;13.50;3.40;;;;;;;20.66;39.00;99376.50;5098052;28;20036;-78
2022/04/20 06:27:42;;;;;;;16.52;3.78;;;;;;;20.65;39.41;99375.66;5093695;28;20515;-77
2022/04/20 06:30:20;;;;;;;9.82;2.95;;;;;;;20.73;39.36;99377.44;5098136;28;20040;-76
2022/04/20 06:32:56;;;;;;;15.82;3.42;;;;;;;20.81;39.52;99374.63;5082614;28;20129;-76
2022/04/20 06:35:46;;;;;;;19.92;3.10;;;;;;;20.97;39.58;99374.41;5068988;28;20052;-76
2022/04/20 06:38:22;;;;;;;9.50;2.78;;;;;;;21.07;39.67;99364.09;5099763;28;20048;-77
2022/04/20 06:41:13;;;;;;;13.13;3.05;;;;;;;21.18;39.00;99364.66;5084141;28;20135;-77
2022/04/20 06:44:05;;;;;;;13.00;2.78;;;;;;;21.05;38.96;99355.28;5080613;28;20047;-78
2022/04/20 06:46:54;;;;;;;17.20;3.70;;;;;;;20.79;39.70;99354.94;5089225;28;20044;-76
2022/04/20 06:49:43;;;;;;;16.40;3.08;;;;;;;20.67;39.57;99359.16;5078209;28;20105;-77
2022/04/20 07:00:42;;;;;;;13.18;3.80;;;;;;;21.03;39.17;99341.06;5080134;28;20055;-77
2022/04/20 07:03:19;;;;;;;5.15;2.78;;;;;;;21.09;39.30;99339.44;5065685;28;20057;-77
2022/04/20 07:05:47;;;;;;;8.07;2.90;;;;;;;21.07;39.19;99345.09;5097913;28;20139;-78
2022/04/20 07:08:34;;;;;;;24.95;4.72;;;;;;;21.07;39.50;99336.09;5099876;28;20134;-77
2022/04/20 07:11:13;;;;;;;14.93;3.78;;;;;;;20.98;39.68;99321.75;5096978;28;20043;-77
2022/04/20 07:13:40;;;;;;;19.50;4.00;;;;;;;20.99;39.64;99338.91;5080031;28;20485;-78
2022/04/20 07:16:07;;;;;;;20.17;4.18;;;;;;;20.94;39.85;99336.75;5096552;28;20375;-80
2022/04/20 07:18:36;;;;;;;51.75;5.00;;;;;;;20.93;39.89;99329.63;5079854;28;20048;-78
2022/04/20 07:21:32;;;;;;;38.60;5.18;;;;;;;20.92;39.98;99336.13;5084155;28;20039;-78
2022/04/20 07:24:28;;;;;;;53.53;6.43;;;;;;;21.01;39.92;99320.53;5096553;28;20051;-77
2022/04/20 07:27:14;;;;;;;34.05;4.80;;;;;;;21.05;39.73;99322.66;5100020;28;20046;-76
2022/04/20 07:30:03;;;;;;;40.80;5.57;;;;;;;21.11;40.12;99323.81;5082135;28;20044;-77
2022/04/20 07:32:48;;;;;;;31.52;5.00;;;;;;;21.04;39.70;99315.56;5099992;28;20048;-76
2022/04/20 07:35:33;;;;;;;26.20;5.22;;;;;;;20.96;39.59;99312.13;5115007;28;20044;-78
2022/04/20 07:38:17;;;;;;;30.60;5.32;;;;;;;20.88;39.90;99302.19;5096272;28;20043;-78
2022/04/20 07:41:02;;;;;;;32.10;5.35;;;;;;;20.98;39.98;99301.88;5096624;28;20066;-78
2022/04/20 07:43:55;;;;;;;33.80;5.63;;;;;;;20.99;39.98;99300.88;5083412;28;20040;-77
2022/04/20 07:46:31;;;;;;;43.65;6.00;;;;;;;20.99;39.55;99301.72;5096382;28;20386;-79
2022/04/20 07:52:22;;;;;;;38.70;7.78;;;;;;;20.99;39.84;99296.28;5114798;28;20044;-78
2022/04/20 07:55:13;;;;;;;47.05;8.20;;;;;;;21.04;39.91;99296.53;5095973;28;20051;-78
2022/04/20 07:57:53;;;;;;;52.22;8.20;;;;;;;21.08;39.60;99295.13;5078873;28;20196;-77
2022/04/20 08:00:42;;;;;;;48.78;8.95;;;;;;;21.06;39.90;99280.91;5081880;28;20059;-77
2022/04/20 08:03:43;;;;;;;34.45;7.85;;;;;;;21.07;39.72;99279.84;5034645;28;20543;-76
2022/04/20 08:06:12;;;;;;;42.17;7.43;;;;;;;21.06;39.40;99280.91;5050876;28;20127;-76
2022/04/20 08:08:39;;;;;;;56.05;8.23;;;;;;;21.08;39.61;99284.25;5078759;28;20070;-76
2022/04/20 08:11:05;;;;;;;31.75;6.60;;;;;;;21.17;39.19;99278.69;5062714;28;20078;-76
2022/04/20 08:16:41;;;;;;;31.15;7.25;;;;;;;21.33;39.51;99273.06;5095817;28;20050;-76
2022/04/20 08:19:26;;;;;;;31.85;6.03;;;;;;;21.35;38.96;99262.81;5113285;28;20067;-76
2022/04/20 08:22:25;;;;;;;26.20;6.43;;;;;;;21.49;38.88;99275.50;5090241;28;20127;-75
2022/04/20 08:24:51;;;;;;;28.27;5.68;;;;;;;21.61;38.45;99272.25;5078914;28;20036;-76
2022/04/20 08:27:19;;;;;;;22.75;5.40;;;;;;;21.72;38.23;99274.44;5095458;28;20573;-76
2022/04/20 08:29:47;;;;;;;30.75;6.13;;;;;;;21.90;37.94;99280.25;5113622;28;20116;-76
2022/04/20 08:32:17;;;;;;;21.13;4.63;;;;;;;22.01;37.74;99271.53;5095186;28;20043;-77
2022/04/20 08:34:43;;;;;;;17.58;3.92;;;;;;;22.11;36.82;99273.06;5061680;28;20089;-76
2022/04/20 08:37:10;;;;;;;18.17;4.22;;;;;;;22.14;36.42;99261.81;5062212;28;20096;-76
2022/04/20 08:39:38;;;;;;;14.43;3.67;;;;;;;22.39;36.19;99259.47;5095391;28;20063;-76
2022/04/20 08:42:06;;;;;;;17.88;3.97;;;;;;;22.52;36.17;99260.34;5095462;28;20101;-75
2022/04/20 08:44:34;;;;;;;10.32;4.15;;;;;;;22.74;36.08;99246.63;5113429;28;20505;-76
2022/04/20 08:47:02;;;;;;;15.52;3.85;;;;;;;22.87;34.81;99251.28;5061917;28;20110;-76
2022/04/20 08:49:28;;;;;;;8.95;2.13;;;;;;;22.67;34.57;99262.09;5078042;28;20490;-76
2022/04/20 08:54:39;;;;;;;5.25;2.17;;;;;;;22.36;34.37;99263.41;5095168;28;20035;-76
2022/04/20 08:57:15;;;;;;;10.15;2.47;;;;;;;22.24;34.59;99252.25;5113272;28;20050;-78
2022/04/20 08:59:48;;;;;;;18.48;4.20;;;;;;;22.53;34.65;99253.06;5113088;28;20092;-77
2022/04/20 09:02:15;;;;;;;14.93;2.88;;;;;;;22.62;34.76;99251.00;5094660;28;20500;-77
2022/04/20 09:04:42;;;;;;;13.70;2.40;;;;;;;22.81;34.39;99239.31;5113411;28;20057;-78
2022/04/20 09:07:10;;;;;;;7.85;2.85;;;;;;;23.01;34.15;99247.59;5112957;28;20083;-77
2022/04/20 09:09:36;;;;;;;7.57;2.67;;;;;;;23.10;33.55;99242.81;5094388;28;20554;-76
2022/04/20 09:12:08;;;;;;;9.10;2.25;;;;;;;23.10;33.19;99240.06;5094773;28;20044;-76
2022/04/20 09:14:34;;;;;;;9.13;2.60;;;;;;;23.03;33.84;99238.16;5095292;28;20096;-77
2022/04/20 09:17:01;;;;;;;14.65;2.50;;;;;;;23.13;33.31;99234.19;5113093;28;20058;-76
2022/04/20 09:19:28;;;;;;;9.60;2.40;;;;;;;23.06;33.19;99233.34;5112873;28;20482;-76
2022/04/20 09:21:55;;;;;;;14.05;2.90;;;;;;;23.14;33.61;99235.88;5077574;28;20050;-77
2022/04/20 09:24:22;;;;;;;28.10;2.97;;;;;;;22.94;33.61;99239.41;5112913;28;20052;-76
2022/04/20 09:26:56;;;;;;;8.80;2.22;;;;;;;22.88;33.92;99245.63;5061159;28;20406;-76
2022/04/20 09:29:23;;;;;;;11.98;2.85;;;;;;;22.90;33.78;99245.41;5061512;28;20044;-76
2022/04/20 09:31:51;;;;;;;11.77;2.42;;;;;;;22.72;34.07;99232.38;5080957;28;20062;-78
2022/04/20 09:37:24;;;;;;;9.75;2.75;;;;;;;22.75;34.07;99231.94;5081440;28;20040;-76
2022/04/20 09:39:51;;;;;;;12.25;2.85;;;;;;;22.78;33.82;99226.94;5065098;28;20050;-75
2022/04/20 09:42:19;;;;;;;9.68;2.67;;;;;;;22.83;34.08;99229.06;5098810;28;20047;-75
2022/04/20 09:44:56;;;;;;;8.23;2.50;;;;;;;22.72;34.09;99218.75;5065104;28;20085;-77
2022/04/20 09:50:13;;;;;;;9.05;2.90;;;;;;;22.89;34.05;99225.50;5116736;28;20044;-76
2022/04/20 09:52:49;;;;;;;12.55;3.55;;;;;;;22.96;34.30;99215.50;5098319;28;20402;-75
2022/04/20 09:55:26;;;;;;;10.57;2.65;;;;;;;23.00;33.94;99214.03;5081417;28;20402;-76
2022/04/20 09:57:53;;;;;;;13.75;2.60;;;;;;;23.07;33.91;99213.22;5098198;28;20154;-76
2022/04/20 10:00:20;;;;;;;10.07;2.58;;;;;;;23.18;33.80;99215.34;5117220;28;20051;-78
2022/04/20 10:02:53;;;;;;;12.25;3.03;;;;;;;23.13;33.99;99206.91;5098495;28;20054;-76
2022/04/20 10:05:22;;;;;;;15.38;2.78;;;;;;;23.20;33.69;99214.06;5116770;28;20045;-77
2022/04/20 10:07:47;;;;;;;7.55;2.35;;;;;;;23.11;33.89;99225.38;5098370;28;20057;-78
2022/04/20 10:10:14;;;;;;;22.77;3.10;;;;;;;22.42;34.43;99221.78;5064777;28;20047;-79
2022/04/20 10:12:42;;;;;;;12.88;2.85;;;;;;;21.93;35.72;99209.09;5064587;28;20075;-77
2022/04/20 10:17:56;;;;;;;20.42;2.65;;;;;;;21.56;34.30;99211.13;5081492;28;20050;-79
2022/04/20 10:20:26;;;;;;;17.63;2.50;;;;;;;21.60;34.32;99194.44;5116481;28;20043;-78
2022/04/20 10:23:01;;;;;;;24.85;2.65;;;;;;;21.77;34.59;99190.34;5116189;28;20042;-78
2022/04/20 10:25:28;;;;;;;21.25;3.17;;;;;;;21.93;34.57;99198.22;5116592;28;20051;-77
2022/04/20 10:28:09;;;;;;;18.58;3.10;;;;;;;22.03;34.37;99204.13;5098266;28;20047;-77
2022/04/20 10:30:58;;;;;;;14.70;2.35;;;;;;;22.01;34.34;99195.34;5081014;28;20104;-77
2022/04/20 10:33:25;;;;;;;13.77;2.40;;;;;;;22.02;33.88;99199.72;5080275;28;20510;-77
2022/04/20 10:36:08;;;;;;;21.52;3.00;;;;;;;22.01;33.87;99181.72;5082457;28;20134;-78
2022/04/20 10:38:38;;;;;;;33.55;4.25;;;;;;;22.01;33.36;99192.63;5080464;28;20047;-77
2022/04/20 10:41:19;;;;;;;21.35;2.42;;;;;;;21.93;32.08;99206.38;5080646;28;20131;-76
2022/04/20 10:44:03;;;;;;;41.95;3.60;;;;;;;21.80;31.65;99181.78;5062666;28;20505;-77
2022/04/20 10:46:29;;;;;;;26.98;3.03;;;;;;;21.77;32.05;99193.91;5064000;28;20138;-77
2022/04/20 10:49:02;;;;;;;26.92;3.20;;;;;;;21.75;32.28;99192.44;5097482;28;20182;-77
2022/04/20 10:51:32;;;;;;;21.33;2.75;;;;;;;21.78;32.35;99194.78;5097587;28;20082;-76
2022/04/20 10:54:29;;;;;;;16.35;2.88;;;;;;;21.64;32.34;99187.53;5080680;28;20481;-75
2022/04/20 10:57:02;;;;;;;26.55;3.60;;;;;;;21.52;32.26;99192.69;5080109;28;20061;-78
2022/04/20 10:59:29;;;;;;;79.32;5.22;;;;;;;21.52;32.45;99185.38;5080310;28;20043;-77
2022/04/20 11:02:06;;;;;;;26.77;2.90;;;;;;;21.44;32.54;99184.66;5063519;28;20051;-77
2022/04/20 11:04:33;;;;;;;29.42;3.88;;;;;;;21.41;32.55;99187.78;5097122;28;20585;-77
2022/04/20 11:06:58;;;;;;;55.42;4.95;;;;;;;21.33;32.73;99199.66;5080403;28;20039;-76
2022/04/20 11:09:44;;;;;;;31.80;3.63;;;;;;;21.24;32.94;99189.88;5080159;28;20040;-77
2022/04/20 11:21:20;;;;;;;24.50;3.70;;;;;;;21.17;32.94;99197.13;5114416;28;20439;-77
2022/04/20 11:23:55;;;;;;;18.17;3.72;;;;;;;21.07;32.92;99195.59;5097036;28;20082;-76
2022/04/20 11:26:25;;;;;;;29.98;3.30;;;;;;;21.00;32.77;99185.69;5079653;28;20046;-78
2022/04/20 11:29:14;;;;;;;25.15;3.88;;;;;;;21.10;32.92;99216.97;5063606;28;20528;-76
2022/04/20 11:31:49;;;;;;;21.83;3.15;;;;;;;21.03;32.72;99188.88;5079767;28;20040;-77
2022/04/20 11:34:18;;;;;;;34.50;3.72;;;;;;;21.18;32.56;99201.56;5080123;28;20051;-77
2022/04/20 11:36:53;;;;;;;36.55;3.72;;;;;;;21.33;32.70;99177.91;5079616;28;20049;-76
2022/04/20 11:39:21;;;;;;;22.10;3.22;;;;;;;21.38;32.84;99191.72;5115167;28;20129;-76
2022/04/20 11:41:49;;;;;;;26.35;3.20;;;;;;;21.43;32.83;99182.97;5114611;28;20058;-77
2022/04/20 11:44:20;;;;;;;17.38;2.90;;;;;;;21.42;32.37;99203.91;5062982;28;20035;-76
2022/04/20 11:46:46;;;;;;;22.98;3.10;;;;;;;21.37;32.45;99187.34;5080111;28;20047;-77
2022/04/20 11:49:12;;;;;;;46.92;3.60;;;;;;;21.32;32.92;99217.78;5114959;28;20043;-76
2022/04/20 11:51:53;;;;;;;25.95;3.03;;;;;;;21.18;32.70;99196.13;5079824;28;20498;-76
2022/04/20 11:54:21;;;;;;;29.60;3.40;;;;;;;21.06;33.11;99188.50;5079215;28;20134;-76
2022/04/20 11:57:16;;;;;;;13.65;2.42;;;;;;;20.93;33.42;99187.50;5082853;28;20120;-77
2022/04/20 11:59:47;;;;;;;21.88;2.80;;;;;;;20.84;33.99;99173.22;5114082;28;20433;-77
2022/04/20 12:02:14;;;;;;;23.25;3.03;;;;;;;20.81;33.76;99206.19;5114328;28;20059;-77
2022/04/20 12:04:42;;;;;;;19.30;3.00;;;;;;;20.61;34.29;99206.81;5114803;28;20043;-78
2022/04/20 12:07:09;;;;;;;20.25;3.70;;;;;;;20.54;34.53;99227.59;5096448;28;20051;-77
2022/04/20 12:09:40;;;;;;;30.25;4.13;;;;;;;20.44;35.07;99216.16;5082425;28;20043;-76
2022/04/20 12:12:08;;;;;;;20.73;3.08;;;;;;;20.37;35.67;99209.81;5080253;28;20046;-78
2022/04/20 12:14:37;;;;;;;14.18;2.83;;;;;;;20.37;35.64;99204.38;5113989;28;20399;-77
2022/04/20 12:17:10;;;;;;;;;;;;;;;20.30;35.86;99200.72;5096615;28;20051;-76
2022/04/20 12:19:42;;;;;;;12.38;3.40;;;;;;;20.26;36.20;99202.97;5062187;28;19927;-77
2022/04/20 12:22:17;;;;;;;27.52;3.47;;;;;;;20.24;36.07;99187.94;5095193;28;20046;-76
2022/04/20 12:24:44;;;;;;;30.80;3.47;;;;;;;20.40;35.68;99185.00;5079007;28;20149;-76
2022/04/20 12:27:18;;;;;;;18.23;2.88;;;;;;;20.39;35.98;99186.03;5061811;28;20043;-76
2022/04/20 12:29:45;;;;;;;28.13;3.00;;;;;;;20.37;35.78;99166.38;5095559;28;20443;-76
2022/04/20 12:32:10;;;;;;;22.42;2.92;;;;;;;20.40;36.10;99185.00;5113464;28;20482;-75